createdAt,value
2023-03-06T00:00:33.144Z,97.95
2023-03-06T00:01:33.172Z,97.95
2023-03-06T00:02:33.093Z,98.05
2023-03-06T00:03:33.111Z,97.95
2023-03-06T00:04:33.104Z,97.74
2023-03-06T00:05:33.144Z,97.64
2023-03-06T00:06:33.078Z,97.53
2023-03-06T00:07:33.041Z,97.64
2023-03-06T00:08:33.030Z,97.74
2023-03-06T00:09:33.087Z,97.85
2023-03-06T00:10:33.011Z,97.85
2023-03-06T00:11:32.978Z,97.95
2023-03-06T00:12:32.973Z,97.95
2023-03-06T00:13:32.953Z,98.16
2023-03-06T00:14:32.963Z,98.16
2023-03-06T00:15:32.976Z,98.05
2023-03-06T00:16:32.970Z,98.05
2023-03-06T00:17:32.904Z,98.05
2023-03-06T00:18:32.923Z,98.05
2023-03-06T00:19:32.887Z,97.95
2023-03-06T00:20:32.850Z,97.95
2023-03-06T00:21:32.861Z,98.05
2023-03-06T00:22:32.829Z,98.05
2023-03-06T00:23:32.819Z,97.85
2023-03-06T00:24:32.827Z,97.85
2023-03-06T00:25:32.799Z,97.85
2023-03-06T00:26:32.793Z,97.95
2023-03-06T00:27:32.805Z,97.95
2023-03-06T00:28:32.749Z,97.95
2023-03-06T00:29:32.774Z,98.05
2023-03-06T00:30:32.752Z,98.05
2023-03-06T00:31:32.743Z,98.05
2023-03-06T00:32:32.752Z,98.16
2023-03-06T00:33:32.735Z,98.16
2023-03-06T00:34:32.700Z,98.26
2023-03-06T00:35:32.707Z,98.36
2023-03-06T00:36:32.643Z,98.36
2023-03-06T00:37:32.633Z,98.36
2023-03-06T00:38:32.616Z,98.47
2023-03-06T00:39:32.600Z,98.57
2023-03-06T00:40:32.643Z,98.57
2023-03-06T00:41:32.591Z,98.57
2023-03-06T00:42:32.586Z,98.57
2023-03-06T00:43:32.572Z,98.57
2023-03-06T00:44:32.564Z,98.78
2023-03-06T00:45:32.609Z,98.82
2023-03-06T00:46:32.531Z,98.82
2023-03-06T00:47:33.186Z,98.88
2023-03-06T00:48:32.556Z,98.88
2023-03-06T00:49:32.530Z,98.99
2023-03-06T00:50:33.181Z,98.99
2023-03-06T00:51:32.499Z,98.93
2023-03-06T00:52:32.505Z,98.88
2023-03-06T00:53:32.425Z,98.88
2023-03-06T00:54:32.445Z,98.88
2023-03-06T00:55:32.497Z,98.93
2023-03-06T00:56:32.453Z,98.99
2023-03-06T00:57:32.431Z,98.99
2023-03-06T00:58:32.383Z,99.03
2023-03-06T00:59:32.359Z,99.13
2023-03-06T01:00:32.344Z,99.13
2023-03-06T01:01:32.348Z,99.24
2023-03-06T01:02:32.377Z,99.13
2023-03-06T01:03:32.313Z,99.24
2023-03-06T01:04:32.291Z,99.34
2023-03-06T01:05:32.287Z,99.24
2023-03-06T01:06:32.251Z,99.24
2023-03-06T01:07:32.282Z,99.24
2023-03-06T01:08:32.241Z,99.34
2023-03-06T01:09:32.294Z,99.44
2023-03-06T01:10:32.194Z,99.34
2023-03-06T01:11:32.199Z,99.34
2023-03-06T01:12:32.189Z,99.34
2023-03-06T01:13:32.181Z,99.34
2023-03-06T01:14:32.182Z,99.24
2023-03-06T01:15:32.132Z,99.13
2023-03-06T01:16:32.155Z,99.03
2023-03-06T01:17:32.150Z,99.03
2023-03-06T01:18:32.141Z,99.03
2023-03-06T01:19:32.080Z,99.03
2023-03-06T01:20:32.073Z,99.03
2023-03-06T01:21:32.062Z,99.13
2023-03-06T01:22:32.054Z,99.03
2023-03-06T01:23:32.061Z,98.93
2023-03-06T01:24:32.061Z,99.03
2023-03-06T01:25:32.011Z,98.93
2023-03-06T01:26:32.016Z,98.93
2023-03-06T01:27:32.000Z,98.93
2023-03-06T01:28:31.962Z,98.93
2023-03-06T01:29:31.976Z,98.93
2023-03-06T01:30:31.964Z,98.93
2023-03-06T01:31:31.983Z,98.82
2023-03-06T01:32:31.964Z,98.82
2023-03-06T01:33:31.946Z,98.82
2023-03-06T01:34:31.906Z,98.82
2023-03-06T01:35:31.898Z,98.61
2023-03-06T01:36:31.879Z,98.61
2023-03-06T01:37:31.894Z,98.72
2023-03-06T01:38:31.845Z,98.82
2023-03-06T01:39:31.836Z,98.72
2023-03-06T01:40:31.880Z,98.82
2023-03-06T01:41:31.834Z,99.03
2023-03-06T01:42:32.223Z,99.13
2023-03-06T01:43:31.789Z,99.24
2023-03-06T01:44:31.769Z,99.44
2023-03-06T01:45:31.774Z,99.55
2023-03-06T01:46:31.741Z,99.55
2023-03-06T01:47:31.771Z,99.55
2023-03-06T01:48:31.711Z,99.70
2023-03-06T01:49:31.703Z,99.80
2023-03-06T01:50:31.689Z,99.91
2023-03-06T01:51:31.723Z,99.91
2023-03-06T01:52:31.678Z,99.99
2023-03-06T01:53:31.660Z,99.99
2023-03-06T01:54:31.651Z,99.99
2023-03-06T01:55:31.635Z,99.91
2023-03-06T01:56:31.652Z,99.99
2023-03-06T01:57:31.612Z,99.99
2023-03-06T01:58:31.576Z,99.99
2023-03-06T01:59:31.606Z,99.99
2023-03-06T02:00:31.558Z,99.99
2023-03-06T02:01:31.559Z,99.99
2023-03-06T02:02:31.555Z,99.99
2023-03-06T02:03:31.542Z,99.91
2023-03-06T02:04:31.500Z,99.91
2023-03-06T02:05:31.482Z,99.91
2023-03-06T02:06:31.480Z,99.80
2023-03-06T02:08:28.375Z,99.70
2023-03-06T02:09:28.342Z,99.59
2023-03-06T02:10:28.366Z,99.70
2023-03-06T02:11:28.371Z,99.70
2023-03-06T02:12:28.306Z,99.59
2023-03-06T02:13:28.316Z,99.59
2023-03-06T02:14:28.292Z,99.59
2023-03-06T02:15:28.289Z,99.59
2023-03-06T02:16:28.330Z,99.70
2023-03-06T02:17:28.284Z,99.70
2023-03-06T02:18:28.240Z,99.70
2023-03-06T02:19:28.229Z,99.70
2023-03-06T02:20:28.230Z,99.70
2023-03-06T02:21:28.196Z,99.70
2023-03-06T02:22:28.202Z,99.70
2023-03-06T02:23:28.265Z,99.70
2023-03-06T02:24:28.174Z,99.80
2023-03-06T02:25:28.148Z,99.86
2023-03-06T02:26:28.141Z,99.86
2023-03-06T02:27:28.138Z,99.86
2023-03-06T02:28:28.119Z,99.70
2023-03-06T02:29:28.094Z,99.70
2023-03-06T02:30:28.089Z,99.65
2023-03-06T02:31:28.058Z,99.59
2023-03-06T02:32:28.069Z,99.59
2023-03-06T02:33:28.073Z,99.55
2023-03-06T02:34:28.040Z,99.65
2023-03-06T02:35:28.030Z,99.49
2023-03-06T02:36:28.041Z,99.38
2023-03-06T02:37:27.976Z,99.38
2023-03-06T02:38:27.992Z,99.28
2023-03-06T02:39:27.982Z,99.28
2023-03-06T02:40:27.950Z,99.28
2023-03-06T02:41:27.927Z,99.34
2023-03-06T02:42:27.921Z,99.34
2023-03-06T02:43:27.920Z,99.34
2023-03-06T02:44:27.896Z,99.34
2023-03-06T02:45:27.945Z,99.24
2023-03-06T02:46:27.946Z,99.24
2023-03-06T02:47:27.857Z,99.24
2023-03-06T02:48:27.825Z,99.34
2023-03-06T02:49:27.846Z,99.34
2023-03-06T02:50:27.816Z,99.44
2023-03-06T02:51:27.813Z,99.34
2023-03-06T02:52:27.794Z,99.34
2023-03-06T02:53:27.776Z,99.34
2023-03-06T02:54:27.777Z,99.28
2023-03-06T02:55:27.761Z,99.34
2023-03-06T02:56:27.739Z,99.34
2023-03-06T02:57:27.708Z,99.24
2023-03-06T02:58:27.697Z,99.34
2023-03-06T02:59:27.687Z,99.28
2023-03-06T03:00:27.679Z,99.34
2023-03-06T03:01:27.703Z,99.38
2023-03-06T03:02:27.647Z,99.34
2023-03-06T03:03:27.626Z,99.34
2023-03-06T03:04:27.679Z,99.34
2023-03-06T03:05:27.616Z,99.38
2023-03-06T03:06:27.681Z,99.18
2023-03-06T03:07:27.575Z,99.18
2023-03-06T03:08:27.565Z,99.18
2023-03-06T03:09:27.552Z,99.07
2023-03-06T03:10:27.559Z,99.03
2023-03-06T03:11:27.572Z,99.03
2023-03-06T03:12:27.517Z,98.97
2023-03-06T03:13:27.497Z,98.82
2023-03-06T03:14:27.528Z,98.76
2023-03-06T03:15:27.514Z,98.55
2023-03-06T03:16:27.486Z,98.55
2023-03-06T03:17:27.457Z,98.14
2023-03-06T03:18:27.455Z,97.72
2023-03-06T03:19:27.429Z,97.52
2023-03-06T03:20:27.419Z,97.52
2023-03-06T03:21:27.390Z,97.41
2023-03-06T03:22:27.380Z,97.31
2023-03-06T03:23:27.364Z,97.20
2023-03-06T03:24:27.497Z,97.00
2023-03-06T03:25:27.383Z,97.00
2023-03-06T03:26:27.335Z,97.00
2023-03-06T03:27:27.309Z,97.00
2023-03-06T03:28:27.323Z,97.00
2023-03-06T03:29:27.307Z,96.89
2023-03-06T03:30:27.302Z,96.79
2023-03-06T03:31:27.292Z,96.79
2023-03-06T03:32:27.366Z,96.58
2023-03-06T03:33:27.325Z,96.48
2023-03-06T03:34:27.255Z,96.37
2023-03-06T03:35:27.256Z,96.06
2023-03-06T03:36:27.224Z,96.17
2023-03-06T03:37:27.174Z,96.17
2023-03-06T03:38:27.164Z,95.96
2023-03-06T03:39:27.175Z,95.90
2023-03-06T03:40:27.156Z,95.69
2023-03-06T03:41:27.119Z,95.69
2023-03-06T03:42:27.129Z,95.79
2023-03-06T03:43:27.097Z,95.90
2023-03-06T03:44:27.094Z,95.90
2023-03-06T03:45:27.093Z,95.90
2023-03-06T03:46:27.064Z,95.90
2023-03-06T03:47:27.064Z,96.11
2023-03-06T03:48:27.052Z,96.11
2023-03-06T03:49:27.056Z,96.21
2023-03-06T03:50:27.030Z,96.31
2023-03-06T03:51:26.989Z,96.42
2023-03-06T03:52:26.971Z,96.42
2023-03-06T03:53:27.021Z,96.52
2023-03-06T03:54:26.972Z,96.62
2023-03-06T03:55:26.984Z,96.73
2023-03-06T03:56:26.932Z,96.83
2023-03-06T03:57:26.926Z,96.83
2023-03-06T03:58:26.912Z,96.83
2023-03-06T03:59:26.894Z,96.83
2023-03-06T04:00:26.875Z,96.73
2023-03-06T04:01:26.885Z,96.62
2023-03-06T04:02:26.844Z,96.62
2023-03-06T04:03:26.825Z,96.73
2023-03-06T04:04:26.880Z,96.73
2023-03-06T04:05:26.797Z,96.73
2023-03-06T04:06:26.810Z,96.62
2023-03-06T04:07:26.801Z,96.52
2023-03-06T04:08:26.768Z,96.31
2023-03-06T04:09:26.760Z,96.11
2023-03-06T04:10:26.774Z,96.21
2023-03-06T04:11:26.716Z,96.21
2023-03-06T04:12:26.722Z,96.27
2023-03-06T04:13:26.708Z,96.31
2023-03-06T04:14:26.717Z,96.31
2023-03-06T04:15:26.687Z,96.31
2023-03-06T04:16:26.696Z,96.21
2023-03-06T04:17:26.661Z,96.21
2023-03-06T04:18:26.657Z,96.21
2023-03-06T04:19:26.638Z,96.31
2023-03-06T04:20:26.608Z,96.31
2023-03-06T04:21:26.605Z,96.31
2023-03-06T04:22:26.587Z,96.31
2023-03-06T04:23:26.554Z,96.31
2023-03-06T04:24:26.579Z,96.31
2023-03-06T04:25:26.537Z,96.21
2023-03-06T04:26:26.552Z,96.11
2023-03-06T04:27:26.530Z,96.21
2023-03-06T04:28:26.497Z,96.21
2023-03-06T04:29:26.489Z,96.31
2023-03-06T04:30:26.468Z,96.31
2023-03-06T04:31:26.500Z,96.31
2023-03-06T04:32:26.476Z,96.42
2023-03-06T04:33:26.470Z,96.42
2023-03-06T04:34:26.444Z,96.62
2023-03-06T04:35:26.443Z,96.62
2023-03-06T04:36:26.392Z,96.62
2023-03-06T04:37:26.399Z,96.62
2023-03-06T04:38:26.392Z,96.73
2023-03-06T04:39:26.387Z,96.83
2023-03-06T04:40:26.367Z,96.83
2023-03-06T04:41:26.323Z,96.94
2023-03-06T04:42:26.336Z,96.94
2023-03-06T04:43:26.335Z,96.94
2023-03-06T04:44:26.329Z,96.94
2023-03-06T04:45:26.288Z,97.04
2023-03-06T04:46:26.317Z,97.14
2023-03-06T04:47:26.240Z,97.25
2023-03-06T04:48:26.241Z,97.25
2023-03-06T04:49:26.234Z,97.45
2023-03-06T04:50:26.221Z,97.45
2023-03-06T04:51:26.351Z,97.50
2023-03-06T04:52:26.215Z,97.50
2023-03-06T04:53:26.168Z,97.50
2023-03-06T04:54:26.182Z,97.61
2023-03-06T04:55:26.156Z,97.61
2023-03-06T04:56:26.133Z,97.71
2023-03-06T04:57:26.132Z,97.71
2023-03-06T04:58:26.096Z,97.71
2023-03-06T04:59:26.097Z,97.71
2023-03-06T05:00:26.084Z,97.81
2023-03-06T05:01:26.156Z,98.13
2023-03-06T05:02:26.063Z,98.33
2023-03-06T05:03:26.054Z,98.23
2023-03-06T05:04:26.021Z,98.44
2023-03-06T05:05:26.006Z,98.44
2023-03-06T05:06:26.023Z,98.33
2023-03-06T05:07:25.983Z,98.48
2023-03-06T05:08:25.976Z,98.54
2023-03-06T05:09:25.964Z,98.54
2023-03-06T05:10:25.956Z,98.54
2023-03-06T05:11:25.946Z,98.44
2023-03-06T05:12:25.908Z,98.54
2023-03-06T05:13:25.918Z,98.33
2023-03-06T05:14:25.896Z,98.33
2023-03-06T05:15:25.881Z,98.33
2023-03-06T05:16:25.924Z,98.23
2023-03-06T05:17:25.853Z,98.23
2023-03-06T05:18:25.858Z,98.23
2023-03-06T05:19:25.815Z,98.23
2023-03-06T05:20:25.818Z,98.23
2023-03-06T05:21:25.795Z,98.23
2023-03-06T05:22:25.773Z,98.33
2023-03-06T05:23:25.813Z,98.33
2023-03-06T05:24:25.755Z,98.54
2023-03-06T05:25:25.736Z,98.54
2023-03-06T05:26:25.715Z,98.54
2023-03-06T05:27:25.725Z,98.54
2023-03-06T05:28:25.712Z,98.33
2023-03-06T05:29:25.685Z,98.23
2023-03-06T05:30:25.685Z,98.33
2023-03-06T05:31:25.678Z,98.33
2023-03-06T05:32:25.683Z,98.33
2023-03-06T05:33:25.624Z,98.23
2023-03-06T05:34:25.632Z,98.33
2023-03-06T05:35:25.635Z,98.38
2023-03-06T05:36:25.606Z,98.33
2023-03-06T05:37:25.600Z,98.33
2023-03-06T05:38:25.621Z,98.33
2023-03-06T05:39:25.563Z,98.33
2023-03-06T05:40:25.530Z,98.38
2023-03-06T05:41:25.561Z,98.27
2023-03-06T05:42:27.616Z,98.17
2023-03-06T05:43:25.487Z,98.27
2023-03-06T05:44:25.511Z,98.27
2023-03-06T05:45:25.468Z,98.27
2023-03-06T05:46:25.464Z,98.27
2023-03-06T05:47:25.446Z,98.27
2023-03-06T05:48:25.454Z,98.27
2023-03-06T05:49:25.445Z,98.27
2023-03-06T05:50:25.438Z,98.48
2023-03-06T05:51:25.398Z,98.48
2023-03-06T05:52:25.432Z,98.38
2023-03-06T05:53:25.393Z,98.48
2023-03-06T05:54:25.766Z,98.59
2023-03-06T05:55:25.335Z,98.48
2023-03-06T05:56:25.347Z,98.38
2023-03-06T05:57:25.311Z,98.07
2023-03-06T05:58:25.290Z,98.07
2023-03-06T05:59:25.315Z,98.38
2023-03-06T06:00:25.307Z,98.27
2023-03-06T06:01:25.266Z,98.17
2023-03-06T06:02:25.310Z,98.17
2023-03-06T06:03:25.291Z,98.27
2023-03-06T06:04:25.209Z,98.38
2023-03-06T06:05:25.256Z,98.38
2023-03-06T06:06:25.223Z,98.48
2023-03-06T06:07:25.171Z,98.38
2023-03-06T06:08:25.157Z,98.27
2023-03-06T06:09:25.144Z,98.27
2023-03-06T06:10:25.173Z,98.27
2023-03-06T06:11:25.132Z,98.27
2023-03-06T06:12:25.123Z,98.38
2023-03-06T06:13:25.125Z,98.27
2023-03-06T06:14:25.109Z,98.27
2023-03-06T06:15:25.169Z,98.07
2023-03-06T06:16:25.085Z,98.07
2023-03-06T06:17:25.085Z,98.17
2023-03-06T06:18:25.030Z,98.07
2023-03-06T06:19:25.023Z,98.11
2023-03-06T06:20:24.997Z,98.11
2023-03-06T06:21:25.005Z,98.22
2023-03-06T06:22:24.997Z,98.22
2023-03-06T06:23:24.978Z,98.22
2023-03-06T06:24:24.950Z,98.32
2023-03-06T06:25:24.935Z,98.22
2023-03-06T06:26:24.939Z,98.17
2023-03-06T06:27:24.912Z,98.17
2023-03-06T06:28:24.905Z,98.27
2023-03-06T06:29:24.904Z,98.17
2023-03-06T06:30:24.866Z,98.22
2023-03-06T06:31:24.898Z,98.32
2023-03-06T06:32:24.877Z,98.22
2023-03-06T06:33:24.860Z,98.32
2023-03-06T06:34:24.828Z,98.27
2023-03-06T06:35:24.833Z,98.32
2023-03-06T06:36:24.788Z,98.38
2023-03-06T06:37:24.778Z,98.43
2023-03-06T06:38:24.796Z,98.48
2023-03-06T06:39:24.762Z,98.48
2023-03-06T06:40:24.770Z,98.43
2023-03-06T06:41:46.242Z,98.53
2023-03-06T06:42:33.243Z,98.59
2023-03-06T06:43:25.748Z,98.48
2023-03-06T06:44:24.668Z,98.48
2023-03-06T06:45:24.694Z,98.59
2023-03-06T06:47:10.762Z,98.59
2023-03-06T06:47:26.170Z,98.69
2023-03-06T06:48:24.636Z,98.69
2023-03-06T06:49:24.617Z,98.69
2023-03-06T06:50:24.630Z,98.59
2023-03-06T06:51:24.606Z,98.69
2023-03-06T06:52:24.573Z,98.59
2023-03-06T06:53:24.935Z,98.59
2023-03-06T06:54:24.551Z,98.69
2023-03-06T06:55:24.610Z,98.69
2023-03-06T06:56:24.525Z,98.80
2023-03-06T06:57:24.524Z,98.69
2023-03-06T06:58:24.500Z,98.59
2023-03-06T06:59:24.603Z,98.69
2023-03-06T07:00:24.469Z,98.80
2023-03-06T07:01:24.559Z,98.75
2023-03-06T07:02:24.456Z,98.27
2023-03-06T07:03:24.443Z,98.48
2023-03-06T07:04:24.407Z,98.48
2023-03-06T07:05:24.430Z,98.44
2023-03-06T07:06:24.372Z,98.33
2023-03-06T07:07:25.553Z,98.44
2023-03-06T07:08:24.369Z,98.54
2023-03-06T07:09:24.349Z,98.02
2023-03-06T07:10:24.344Z,98.02
2023-03-06T07:11:24.311Z,98.13
2023-03-06T07:12:24.361Z,98.13
2023-03-06T07:13:24.320Z,98.13
2023-03-06T07:14:24.293Z,97.92
2023-03-06T07:15:24.276Z,97.92
2023-03-06T07:16:24.271Z,97.92
2023-03-06T07:17:24.244Z,98.02
2023-03-06T07:18:24.224Z,97.71
2023-03-06T07:19:24.258Z,97.81
2023-03-06T07:20:24.190Z,98.02
2023-03-06T07:21:24.210Z,98.23
2023-03-06T07:22:24.196Z,98.23
2023-03-06T07:23:24.185Z,98.02
2023-03-06T07:24:24.155Z,98.13
2023-03-06T07:25:24.140Z,98.13
2023-03-06T07:26:24.327Z,98.13
2023-03-06T07:27:24.141Z,98.23
2023-03-06T07:28:24.156Z,98.23
2023-03-06T07:29:24.074Z,98.33
2023-03-06T07:30:24.139Z,98.44
2023-03-06T07:31:24.122Z,98.39
2023-03-06T07:32:24.055Z,98.19
2023-03-06T07:33:24.028Z,97.98
2023-03-06T07:34:24.036Z,98.19
2023-03-06T07:35:24.016Z,98.29
2023-03-06T07:36:24.161Z,98.08
2023-03-06T07:37:23.997Z,98.08
2023-03-06T07:38:23.958Z,97.88
2023-03-06T07:39:23.956Z,97.88
2023-03-06T07:40:23.962Z,97.98
2023-03-06T07:41:23.969Z,97.98
2023-03-06T07:42:23.892Z,98.03
2023-03-06T07:43:23.912Z,98.03
2023-03-06T07:44:23.866Z,97.67
2023-03-06T07:45:23.905Z,97.88
2023-03-06T07:46:23.894Z,98.08
2023-03-06T07:47:23.838Z,98.29
2023-03-06T07:48:23.816Z,98.39
2023-03-06T07:49:23.883Z,97.93
2023-03-06T07:50:23.801Z,97.83
2023-03-06T07:51:23.806Z,97.83
2023-03-06T07:52:23.794Z,97.83
2023-03-06T07:53:23.860Z,97.83
2023-03-06T07:54:23.767Z,97.72
2023-03-06T07:55:23.771Z,97.52
2023-03-06T07:56:23.760Z,97.52
2023-03-06T07:57:23.722Z,97.72
2023-03-06T07:58:23.692Z,97.31
2023-03-06T07:59:23.676Z,97.31
2023-03-06T08:00:23.692Z,97.52
2023-03-06T08:01:23.697Z,97.47
2023-03-06T08:02:23.645Z,97.27
2023-03-06T08:03:23.629Z,96.95
2023-03-06T08:04:23.627Z,96.95
2023-03-06T08:05:23.619Z,96.95
2023-03-06T08:06:23.701Z,96.85
2023-03-06T08:07:23.602Z,96.64
2023-03-06T08:08:23.574Z,96.64
2023-03-06T08:09:23.551Z,96.75
2023-03-06T08:10:23.568Z,96.69
2023-03-06T08:11:23.534Z,96.75
2023-03-06T08:13:25.780Z,96.64
2023-03-06T08:14:25.773Z,96.54
2023-03-06T08:15:25.749Z,96.33
2023-03-06T08:16:25.842Z,96.23
2023-03-06T08:17:25.738Z,96.33
2023-03-06T08:18:25.726Z,96.23
2023-03-06T08:19:25.746Z,96.23
2023-03-06T08:20:25.724Z,96.33
2023-03-06T08:21:25.689Z,96.33
2023-03-06T08:22:25.734Z,96.44
2023-03-06T08:23:25.655Z,96.54
2023-03-06T08:24:25.640Z,96.54
2023-03-06T08:25:25.635Z,96.54
2023-03-06T08:26:25.607Z,96.58
2023-03-06T08:27:25.599Z,96.69
2023-03-06T08:28:25.594Z,97.20
2023-03-06T08:29:25.568Z,97.72
2023-03-06T08:30:25.577Z,97.93
2023-03-06T08:31:25.626Z,98.14
2023-03-06T08:32:25.584Z,98.55
2023-03-06T08:33:25.534Z,98.76
2023-03-06T08:34:25.536Z,99.07
2023-03-06T08:35:25.545Z,99.38
2023-03-06T08:36:25.507Z,99.59
2023-03-06T08:37:25.520Z,99.70
2023-03-06T08:38:25.517Z,99.95
2023-03-06T08:39:25.439Z,99.99
2023-03-06T08:40:25.474Z,99.99
2023-03-06T08:41:25.410Z,99.99
2023-03-06T08:42:25.423Z,99.99
2023-03-06T08:43:25.390Z,99.99
2023-03-06T08:44:25.430Z,99.99
2023-03-06T08:45:25.393Z,99.99
2023-03-06T08:46:25.408Z,99.99
2023-03-06T08:47:25.360Z,99.99
2023-03-06T08:48:25.363Z,99.99
2023-03-06T08:49:25.312Z,99.99
2023-03-06T08:50:25.346Z,99.99
2023-03-06T08:51:25.286Z,99.99
2023-03-06T08:52:25.339Z,99.99
2023-03-06T08:53:40.390Z,99.99
2023-03-06T08:54:26.273Z,99.99
2023-03-06T08:55:25.230Z,99.99
2023-03-06T08:56:25.227Z,99.99
2023-03-06T08:57:25.197Z,99.99
2023-03-06T08:58:25.215Z,99.99
2023-03-06T08:59:25.218Z,99.99
2023-03-06T09:00:25.258Z,99.99
2023-03-06T09:01:25.165Z,99.99
2023-03-06T09:02:25.189Z,99.99
2023-03-06T09:03:25.138Z,99.99
2023-03-06T09:04:25.154Z,99.99
2023-03-06T09:05:25.116Z,99.99
2023-03-06T09:06:25.126Z,99.99
2023-03-06T09:07:25.087Z,99.99
2023-03-06T09:08:25.069Z,99.99
2023-03-06T09:09:25.196Z,99.99
2023-03-06T09:10:25.175Z,99.99
2023-03-06T09:11:25.011Z,99.99
2023-03-06T09:12:25.028Z,99.99
2023-03-06T09:13:25.002Z,99.99
2023-03-06T09:14:24.972Z,99.99
2023-03-06T09:15:24.964Z,99.99
2023-03-06T09:16:24.996Z,99.99
2023-03-06T09:17:24.967Z,99.99
2023-03-06T09:18:24.934Z,99.99
2023-03-06T09:19:24.955Z,99.99
2023-03-06T09:20:24.927Z,99.99
2023-03-06T09:21:24.908Z,99.99
2023-03-06T09:22:24.893Z,99.99
2023-03-06T09:23:24.899Z,99.99
2023-03-06T09:24:24.866Z,99.99
2023-03-06T09:25:24.850Z,99.99
2023-03-06T09:26:39.652Z,99.99
2023-03-06T09:27:25.842Z,99.99
2023-03-06T09:28:24.799Z,99.99
2023-03-06T09:29:24.777Z,99.99
2023-03-06T09:30:24.788Z,99.99
2023-03-06T09:31:24.824Z,99.99
2023-03-06T09:32:24.828Z,99.99
2023-03-06T09:33:24.799Z,99.99
2023-03-06T09:34:24.744Z,99.99
2023-03-06T09:35:25.104Z,99.99
2023-03-06T09:36:25.025Z,99.99
2023-03-06T09:37:24.728Z,99.99
2023-03-06T09:38:24.721Z,99.99
2023-03-06T09:39:24.663Z,99.99
2023-03-06T09:40:24.748Z,99.99
2023-03-06T09:41:24.649Z,99.99
2023-03-06T09:42:24.662Z,99.99
2023-03-06T09:43:24.740Z,99.99
2023-03-06T09:44:24.629Z,99.99
2023-03-06T09:45:24.581Z,99.99
2023-03-06T09:46:24.649Z,99.99
2023-03-06T09:47:24.591Z,99.99
2023-03-06T09:48:24.618Z,99.99
2023-03-06T09:49:24.521Z,99.99
2023-03-06T09:50:24.522Z,99.99
2023-03-06T09:51:24.558Z,99.99
2023-03-06T09:52:24.506Z,99.99
2023-03-06T09:53:24.481Z,99.99
2023-03-06T09:54:24.456Z,99.91
2023-03-06T09:55:24.539Z,99.49
2023-03-06T09:56:24.451Z,98.76
2023-03-06T09:57:24.441Z,98.86
2023-03-06T09:58:24.402Z,99.07
2023-03-06T09:59:24.410Z,97.93
2023-03-06T10:00:24.379Z,98.35
2023-03-06T10:01:24.390Z,97.52
2023-03-06T10:02:24.451Z,97.93
2023-03-06T10:03:24.381Z,97.62
2023-03-06T10:04:24.355Z,98.03
2023-03-06T10:05:24.321Z,97.93
2023-03-06T10:06:24.326Z,98.10
2023-03-06T10:07:24.317Z,98.10
2023-03-06T10:08:24.277Z,98.10
2023-03-06T10:09:24.299Z,97.47
2023-03-06T10:10:24.267Z,96.64
2023-03-06T10:11:24.247Z,96.75
2023-03-06T10:12:24.874Z,96.95
2023-03-06T10:13:24.229Z,96.50
2023-03-06T10:14:24.248Z,96.50
2023-03-06T10:15:24.218Z,96.19
2023-03-06T10:16:24.197Z,95.98
2023-03-06T10:17:24.171Z,96.08
2023-03-06T10:18:24.184Z,94.63
2023-03-06T10:19:24.135Z,95.46
2023-03-06T10:20:24.143Z,95.46
2023-03-06T10:21:27.837Z,95.31
2023-03-06T10:22:24.119Z,95.93
2023-03-06T10:23:24.094Z,95.62
2023-03-06T10:24:24.082Z,95.10
2023-03-06T10:25:24.128Z,94.48
2023-03-06T10:26:24.151Z,94.79
2023-03-06T10:27:24.090Z,95.20
2023-03-06T10:28:24.023Z,93.85
2023-03-06T10:29:24.008Z,94.89
2023-03-06T10:30:24.000Z,94.27
2023-03-06T10:31:24.106Z,94.06
2023-03-06T10:32:24.011Z,94.58
2023-03-06T10:33:23.981Z,95.10
2023-03-06T10:34:24.000Z,95.41
2023-03-06T10:35:23.962Z,95.51
2023-03-06T10:36:23.908Z,95.10
2023-03-06T10:37:23.905Z,95.06
2023-03-06T10:38:23.919Z,94.64
2023-03-06T10:39:23.885Z,94.85
2023-03-06T10:40:23.885Z,94.43
2023-03-06T10:41:23.866Z,93.40
2023-03-06T10:42:23.847Z,93.19
2023-03-06T10:43:23.852Z,93.40
2023-03-06T10:44:23.840Z,92.88
2023-03-06T10:45:23.834Z,92.26
2023-03-06T10:46:23.827Z,92.78
2023-03-06T10:47:23.843Z,93.40
2023-03-06T10:48:23.792Z,93.91
2023-03-06T10:49:23.793Z,93.60
2023-03-06T10:50:23.762Z,92.98
2023-03-06T10:51:23.723Z,92.88
2023-03-06T10:52:23.721Z,92.57
2023-03-06T10:53:23.740Z,92.68
2023-03-06T10:54:23.723Z,92.78
2023-03-06T10:55:23.674Z,92.78
2023-03-06T10:56:23.674Z,93.50
2023-03-06T10:57:23.712Z,92.84
2023-03-06T10:58:23.674Z,93.46
2023-03-06T10:59:23.647Z,92.01
2023-03-06T11:00:23.622Z,92.43
2023-03-06T11:01:23.616Z,92.22
2023-03-06T11:02:23.597Z,91.39
2023-03-06T11:03:23.610Z,91.76
2023-03-06T11:04:23.666Z,91.66
2023-03-06T11:05:23.573Z,90.72
2023-03-06T11:06:23.535Z,90.89
2023-03-06T11:07:23.544Z,90.78
2023-03-06T11:08:23.507Z,90.84
2023-03-06T11:09:23.530Z,90.02
2023-03-06T11:10:23.485Z,88.06
2023-03-06T11:11:36.703Z,86.71
2023-03-06T11:12:24.458Z,86.71
2023-03-06T11:13:23.467Z,85.16
2023-03-06T11:14:23.951Z,85.50
2023-03-06T11:15:23.454Z,86.50
2023-03-06T11:16:25.773Z,87.60
2023-03-06T11:17:23.396Z,87.81
2023-03-06T11:18:23.381Z,86.63
2023-03-06T11:19:23.374Z,85.70
2023-03-06T11:20:23.364Z,84.56
2023-03-06T11:21:23.405Z,85.08
2023-03-06T11:22:23.346Z,84.25
2023-03-06T11:23:23.387Z,84.36
2023-03-06T11:24:23.338Z,84.56
2023-03-06T11:25:23.317Z,84.19
2023-03-06T11:26:23.283Z,83.50
2023-03-06T11:27:23.331Z,84.43
2023-03-06T11:28:23.292Z,85.36
2023-03-06T11:29:23.400Z,84.22
2023-03-06T11:30:23.246Z,83.85
2023-03-06T11:31:23.293Z,84.47
2023-03-06T11:32:23.253Z,84.20
2023-03-06T11:33:23.243Z,84.61
2023-03-06T11:34:23.230Z,86.27
2023-03-06T11:35:23.201Z,86.68
2023-03-06T11:36:23.208Z,86.33
2023-03-06T11:37:23.157Z,85.40
2023-03-06T11:38:23.135Z,85.19
2023-03-06T11:39:23.151Z,85.68
2023-03-06T11:40:23.121Z,85.16
2023-03-06T11:41:23.172Z,85.05
2023-03-06T11:42:23.108Z,84.39
2023-03-06T11:43:23.097Z,85.02
2023-03-06T11:44:23.079Z,85.49
2023-03-06T11:45:23.046Z,83.18
2023-03-06T11:46:23.096Z,84.52
2023-03-06T11:47:23.048Z,83.14
2023-03-06T11:48:23.013Z,81.70
2023-03-06T11:49:22.996Z,81.59
2023-03-06T11:50:23.019Z,80.39
2023-03-06T11:51:23.000Z,80.18
2023-03-06T11:52:23.026Z,80.04
2023-03-06T11:53:23.046Z,79.52
2023-03-06T11:54:22.979Z,78.49
2023-03-06T11:55:22.930Z,78.70
2023-03-06T11:56:22.983Z,78.59
2023-03-06T11:57:22.932Z,77.67
2023-03-06T11:58:22.935Z,77.46
2023-03-06T11:59:22.910Z,78.49
2023-03-06T12:00:22.905Z,77.77
2023-03-06T12:01:22.857Z,77.46
2023-03-06T12:02:22.867Z,77.36
2023-03-06T12:03:22.839Z,77.77
2023-03-06T12:04:22.868Z,77.53
2023-03-06T12:05:22.848Z,77.22
2023-03-06T12:06:22.795Z,76.18
2023-03-06T12:07:22.844Z,76.25
2023-03-06T12:08:22.817Z,76.67
2023-03-06T12:09:31.274Z,75.29
2023-03-06T12:10:22.766Z,74.57
2023-03-06T12:11:31.653Z,73.74
2023-03-06T12:12:31.289Z,73.78
2023-03-06T12:13:22.725Z,70.34
2023-03-06T12:14:22.706Z,70.04
2023-03-06T12:15:22.730Z,68.90
2023-03-06T12:16:22.735Z,68.83
2023-03-06T12:17:22.701Z,69.65
2023-03-06T12:18:22.676Z,70.00
2023-03-06T12:19:22.674Z,69.89
2023-03-06T12:20:22.640Z,69.79
2023-03-06T12:21:22.642Z,69.48
2023-03-06T12:22:22.599Z,69.38
2023-03-06T12:23:22.597Z,69.69
2023-03-06T12:24:22.584Z,69.31
2023-03-06T12:25:22.609Z,68.39
2023-03-06T12:26:22.558Z,69.76
2023-03-06T12:27:22.552Z,70.04
2023-03-06T12:28:22.574Z,68.59
2023-03-06T12:29:22.532Z,67.15
2023-03-06T12:30:22.539Z,67.29
2023-03-06T12:31:22.550Z,67.80
2023-03-06T12:32:22.496Z,68.73
2023-03-06T12:33:22.492Z,68.70
2023-03-06T12:34:22.507Z,66.94
2023-03-06T12:35:22.543Z,66.64
2023-03-06T12:36:22.454Z,67.84
2023-03-06T12:37:22.424Z,67.84
2023-03-06T12:38:22.424Z,64.34
2023-03-06T12:39:22.424Z,64.06
2023-03-06T12:40:22.428Z,63.68
2023-03-06T12:41:22.368Z,64.50
2023-03-06T12:42:23.758Z,64.19
2023-03-06T12:43:22.371Z,64.53
2023-03-06T12:44:22.366Z,64.84
2023-03-06T12:45:22.334Z,65.67
2023-03-06T12:46:22.363Z,66.83
2023-03-06T12:47:22.304Z,66.94
2023-03-06T12:48:22.346Z,67.21
2023-03-06T12:49:31.539Z,67.00
2023-03-06T12:50:23.294Z,67.24
2023-03-06T12:51:22.292Z,66.73
2023-03-06T12:52:29.592Z,66.21
2023-03-06T12:53:23.227Z,66.52
2023-03-06T12:54:22.219Z,66.21